Parrsboro, Canada
Current Conditions -  °F | °C
As of 2:00 PM on Friday 19 Dec 2014 (Local Time) from CYZX Reporting Station
Snow Showers Snow Showers  
Wind Chill: 25°   Ceiling: 1700
Heat Index: 32°   Visibility: 10mi
Dew Point: 32°   Wind: 8mph
Humidity: 100%   Direction: 320°NW
Pressure: 29.75"   Gusts: NA
Location:  45.4°N, 64.32°W
Report Text: CYZX 191800Z 32007KT 10SM -SHSN OVC017 00/M00 A2975 RMK SC8 WNDY HILL 34010KT PCPN VRY LGT SLP077
Loading
Personal Weather Stations






























Interactive Weather Map New forecast layout! Learn more

10-Day Weather Forecast

Advertisements
Track Severe Weather on mobile